Amonate, Virginia
Current Conditions -  °F | °C
As of 1:35 PM on Sunday 23 Nov 2014 (Local Time) from KJFZ Reporting Station
Light Rain Light Rain  
Wind Chill: 55°   Ceiling: 7000
Heat Index: 55°   Visibility: 10mi
Dew Point: 48°   Wind: 16mph
Humidity: 78%   Direction: 130°SE
Pressure: 29.92"   Gusts: 23mph
Location:  37.19°N, 81.64°W
Report Text: KJFZ 231835Z AUTO 13014G20KT 10SM -RA SCT060 BKN070 OVC090 13/09 A2992 RMK AO2 T01250088
Loading
Personal Weather Stations






























Interactive Weather Map New forecast layout! Learn more

10-Day Weather Forecast

Advertisements
Track Severe Weather on mobile